createdAt,value
2019-01-15T00:01:25.186Z,101313.12
2019-01-15T00:03:55.000Z,101312.66
2019-01-15T00:06:24.669Z,101313.97
2019-01-15T00:08:54.505Z,101317.78
2019-01-15T00:11:23.824Z,101332.13
2019-01-15T00:13:53.727Z,101346.86
2019-01-15T00:16:23.364Z,101347.23
2019-01-15T00:18:52.812Z,101352.97
2019-01-15T00:21:22.919Z,101356.79
2019-01-15T00:23:52.669Z,101357.62
2019-01-15T00:26:23.401Z,101358.55
2019-01-15T00:28:53.719Z,101363.14
2019-01-15T00:31:23.038Z,101361.48
2019-01-15T00:33:52.576Z,101360.25
2019-01-15T00:36:22.677Z,101366.33
2019-01-15T00:38:52.378Z,101379.03
2019-01-15T00:41:30.743Z,101378.87
2019-01-15T00:44:00.704Z,101388.77
2019-01-15T00:46:31.389Z,101405.33
2019-01-15T00:51:39.243Z,101425.80
2019-01-15T00:54:09.355Z,101423.02
2019-01-15T00:56:39.168Z,101424.23
2019-01-15T00:59:09.483Z,101434.33
2019-01-15T01:01:38.972Z,101438.69
2019-01-15T01:04:08.663Z,101449.46
2019-01-15T01:06:38.815Z,101448.80
2019-01-15T01:09:09.019Z,101458.27
2019-01-15T01:11:38.968Z,101462.77
2019-01-15T01:14:08.938Z,101464.62
2019-01-15T01:16:39.022Z,101466.19
2019-01-15T01:19:08.837Z,101472.36
2019-01-15T01:21:38.620Z,101475.55
2019-01-15T01:24:08.733Z,101473.31
2019-01-15T01:26:38.339Z,101473.98
2019-01-15T01:29:07.940Z,101482.52
2019-01-15T01:31:38.239Z,101489.50
2019-01-15T01:34:08.308Z,101502.52
2019-01-15T01:36:38.204Z,101506.93
2019-01-15T01:39:08.627Z,101509.19
2019-01-15T01:41:38.671Z,101515.27
2019-01-15T01:44:08.562Z,101523.59
2019-01-15T01:46:38.687Z,101537.17
2019-01-15T01:49:08.696Z,101546.88
2019-01-15T01:51:38.521Z,101542.20
2019-01-15T01:54:07.983Z,101552.89
2019-01-15T01:56:37.618Z,101573.13
2019-01-15T01:59:08.200Z,101575.27
2019-01-15T02:01:37.734Z,101572.82
2019-01-15T02:04:08.007Z,101579.94
2019-01-15T02:06:38.198Z,101589.42
2019-01-15T02:09:08.738Z,101599.61
2019-01-15T02:11:38.884Z,101601.73
2019-01-15T02:14:08.219Z,101602.45
2019-01-15T02:16:38.472Z,101610.25
2019-01-15T02:19:08.530Z,101618.91
2019-01-15T02:21:38.139Z,101621.61
2019-01-15T02:24:07.835Z,101620.11
2019-01-15T02:26:38.147Z,101622.16
2019-01-15T02:29:08.261Z,101630.13
2019-01-15T02:31:38.062Z,101631.98
2019-01-15T02:34:08.989Z,101630.78
2019-01-15T02:36:39.032Z,101624.67
2019-01-15T02:39:09.137Z,101630.16
2019-01-15T02:41:38.940Z,101636.38
2019-01-15T02:44:08.989Z,101634.45
2019-01-15T02:46:39.047Z,101637.17
2019-01-15T02:49:09.476Z,101637.20
2019-01-15T02:51:40.174Z,101635.44
2019-01-15T02:54:09.752Z,101642.70
2019-01-15T02:56:39.960Z,101655.36
2019-01-15T02:59:09.564Z,101664.00
2019-01-15T03:01:39.286Z,101663.48
2019-01-15T03:04:09.474Z,101672.44
2019-01-15T03:06:39.353Z,101676.48
2019-01-15T03:09:09.588Z,101675.59
2019-01-15T03:11:39.542Z,101675.98
2019-01-15T03:14:09.607Z,101679.05
2019-01-15T03:16:39.773Z,101689.75
2019-01-15T03:19:09.281Z,101695.02
2019-01-15T03:21:39.542Z,101700.67
2019-01-15T03:24:09.423Z,101693.48
2019-01-15T03:26:39.558Z,101691.03
2019-01-15T03:29:09.071Z,101698.25
2019-01-15T03:31:39.212Z,101692.45
2019-01-15T03:34:09.321Z,101694.11
2019-01-15T03:36:38.795Z,101694.21
2019-01-15T03:39:08.585Z,101696.36
2019-01-15T03:41:38.272Z,101699.70
2019-01-15T03:44:08.425Z,101704.56
2019-01-15T03:46:37.425Z,101701.83
2019-01-15T03:49:07.961Z,101700.00
2019-01-15T03:51:37.724Z,101702.66
2019-01-15T03:54:08.349Z,101688.28
2019-01-15T03:56:38.263Z,101695.16
2019-01-15T03:59:08.228Z,101688.36
2019-01-15T04:01:38.271Z,101691.19
2019-01-15T04:04:07.751Z,101693.36
2019-01-15T04:06:37.637Z,101700.80
2019-01-15T04:09:08.218Z,101701.71
2019-01-15T04:11:38.303Z,101702.32
2019-01-15T04:14:08.341Z,101701.25
2019-01-15T04:16:38.096Z,101704.09
2019-01-15T04:19:08.565Z,101707.02
2019-01-15T04:21:38.273Z,101705.05
2019-01-15T04:24:08.414Z,101695.89
2019-01-15T04:26:38.690Z,101692.27
2019-01-15T04:29:08.851Z,101691.16
2019-01-15T04:31:38.876Z,101690.09
2019-01-15T04:34:09.253Z,101686.20
2019-01-15T04:36:38.877Z,101688.45
2019-01-15T04:39:09.094Z,101684.34
2019-01-15T04:41:39.477Z,101685.56
2019-01-15T04:44:09.210Z,101678.80
2019-01-15T04:46:39.181Z,101679.51
2019-01-15T04:49:09.454Z,101669.61
2019-01-15T04:51:39.869Z,101664.90
2019-01-15T04:54:09.804Z,101662.98
2019-01-15T04:56:39.743Z,101650.44
2019-01-15T04:59:09.250Z,101646.63
2019-01-15T05:01:46.570Z,101648.89
2019-01-15T05:04:16.785Z,101645.16
2019-01-15T05:06:46.533Z,101634.52
2019-01-15T05:09:15.883Z,101624.17
2019-01-15T05:11:45.806Z,101623.52
2019-01-15T05:14:16.138Z,101621.15
2019-01-15T05:16:46.135Z,101620.13
2019-01-15T05:19:15.922Z,101619.72
2019-01-15T05:21:45.060Z,101609.92
2019-01-15T05:24:14.825Z,101602.23
2019-01-15T05:26:44.848Z,101594.05
2019-01-15T05:29:14.674Z,101592.98
2019-01-15T05:31:44.691Z,101589.17
2019-01-15T05:34:14.833Z,101583.53
2019-01-15T05:36:44.834Z,101584.21
2019-01-15T05:39:14.553Z,101575.87
2019-01-15T05:41:45.032Z,101577.89
2019-01-15T05:44:14.664Z,101577.22
2019-01-15T05:46:44.421Z,101577.17
2019-01-15T05:49:14.584Z,101572.05
2019-01-15T05:51:44.912Z,101565.87
2019-01-15T05:54:14.633Z,101558.73
2019-01-15T05:56:45.257Z,101558.25
2019-01-15T05:59:15.287Z,101546.59
2019-01-15T06:01:45.641Z,101547.23
2019-01-15T06:04:15.089Z,101543.73
2019-01-15T06:06:45.111Z,101534.39
2019-01-15T06:09:15.027Z,101532.73
2019-01-15T06:11:45.488Z,101518.91
2019-01-15T06:14:15.504Z,101519.41
2019-01-15T06:16:45.241Z,101513.24
2019-01-15T06:19:15.658Z,101509.56
2019-01-15T06:21:45.341Z,101501.22
2019-01-15T06:24:15.694Z,101489.39
2019-01-15T06:26:45.859Z,101490.05
2019-01-15T06:29:15.873Z,101494.73
2019-01-15T06:31:45.979Z,101478.23
2019-01-15T06:34:16.465Z,101470.25
2019-01-15T06:36:46.474Z,101470.56
2019-01-15T06:39:16.256Z,101460.73
2019-01-15T06:41:45.974Z,101461.91
2019-01-15T06:44:15.776Z,101451.70
2019-01-15T06:46:45.701Z,101441.04
2019-01-15T06:49:15.920Z,101445.55
2019-01-15T06:51:46.043Z,101444.20
2019-01-15T06:54:16.249Z,101438.02
2019-01-15T06:56:46.300Z,101422.19
2019-01-15T06:59:16.213Z,101426.52
2019-01-15T07:01:46.336Z,101417.51
2019-01-15T07:04:16.151Z,101415.49
2019-01-15T07:06:46.093Z,101413.40
2019-01-15T07:09:15.879Z,101396.59
2019-01-15T07:11:45.963Z,101396.82
2019-01-15T07:14:15.774Z,101391.58
2019-01-15T07:16:45.694Z,101388.98
2019-01-15T07:19:16.167Z,101377.39
2019-01-15T07:21:46.261Z,101387.36
2019-01-15T07:24:16.240Z,101383.33
2019-01-15T07:26:46.374Z,101371.17
2019-01-15T07:29:16.317Z,101365.84
2019-01-15T07:31:46.609Z,101362.30
2019-01-15T07:34:16.659Z,101358.16
2019-01-15T07:36:46.567Z,101350.11
2019-01-15T07:39:16.834Z,101346.56
2019-01-15T07:41:46.983Z,101348.63
2019-01-15T07:44:17.106Z,101348.98
2019-01-15T07:46:47.346Z,101348.35
2019-01-15T07:49:17.863Z,101342.08
2019-01-15T07:51:48.283Z,101344.23
2019-01-15T07:54:18.616Z,101344.47
2019-01-15T07:56:48.543Z,101342.14
2019-01-15T07:59:18.869Z,101336.62
2019-01-15T08:01:48.584Z,101336.38
2019-01-15T08:04:18.662Z,101337.06
2019-01-15T08:06:48.601Z,101323.38
2019-01-15T08:09:18.530Z,101319.02
2019-01-15T08:11:48.580Z,101311.73
2019-01-15T08:14:18.810Z,101305.92
2019-01-15T08:16:49.299Z,101303.08
2019-01-15T08:19:19.431Z,101300.99
2019-01-15T08:21:49.134Z,101291.96
2019-01-15T08:24:19.209Z,101287.69
2019-01-15T08:26:49.311Z,101287.77
2019-01-15T08:29:19.603Z,101290.63
2019-01-15T08:31:49.250Z,101291.29
2019-01-15T08:34:18.968Z,101289.48
2019-01-15T08:36:48.696Z,101280.15
2019-01-15T08:39:19.049Z,101276.84
2019-01-15T08:41:49.291Z,101280.41
2019-01-15T08:44:19.849Z,101281.09
2019-01-15T08:46:49.973Z,101279.62
2019-01-15T08:49:19.798Z,101278.96
2019-01-15T08:51:49.536Z,101282.64
2019-01-15T08:54:19.326Z,101274.31
2019-01-15T08:56:49.744Z,101283.63
2019-01-15T08:59:19.384Z,101273.66
2019-01-15T09:01:49.263Z,101278.66
2019-01-15T09:04:19.012Z,101280.31
2019-01-15T09:06:48.997Z,101277.64
2019-01-15T09:09:18.793Z,101275.15
2019-01-15T09:11:49.138Z,101275.30
2019-01-15T09:14:18.966Z,101274.48
2019-01-15T09:16:49.673Z,101275.13
2019-01-15T09:19:19.929Z,101273.47
2019-01-15T09:21:50.360Z,101273.66
2019-01-15T09:24:20.436Z,101273.81
2019-01-15T09:26:50.783Z,101279.12
2019-01-15T09:29:21.302Z,101271.95
2019-01-15T09:31:52.024Z,101270.81
2019-01-15T09:34:22.470Z,101279.95
2019-01-15T09:36:52.270Z,101281.95
2019-01-15T09:44:48.368Z,101279.64
2019-01-15T09:47:18.107Z,101286.98
2019-01-15T09:49:48.131Z,101282.30
2019-01-15T09:52:20.671Z,101279.62
2019-01-15T09:54:48.643Z,101285.14
2019-01-15T09:57:18.768Z,101287.81
2019-01-15T09:59:48.783Z,101288.29
2019-01-15T10:02:18.930Z,101293.13
2019-01-15T10:04:49.323Z,101286.46
2019-01-15T10:07:19.464Z,101291.28
2019-01-15T10:09:49.481Z,101292.61
2019-01-15T10:12:19.896Z,101288.31
2019-01-15T10:14:49.712Z,101287.97
2019-01-15T10:17:19.808Z,101287.66
2019-01-15T10:19:50.162Z,101293.12
2019-01-15T10:22:19.950Z,101295.91
2019-01-15T10:24:50.074Z,101297.38
2019-01-15T10:27:20.082Z,101295.52
2019-01-15T10:29:49.911Z,101294.95
2019-01-15T10:32:19.717Z,101298.75
2019-01-15T10:34:49.909Z,101297.16
2019-01-15T10:37:20.088Z,101299.78
2019-01-15T10:39:49.755Z,101296.59
2019-01-15T10:42:19.703Z,101299.09
2019-01-15T10:44:50.429Z,101295.40
2019-01-15T10:47:21.011Z,101285.53
2019-01-15T10:49:51.112Z,101278.02
2019-01-15T10:52:21.177Z,101276.61
2019-01-15T10:54:51.273Z,101277.18
2019-01-15T10:57:21.331Z,101273.52
2019-01-15T10:59:51.140Z,101282.09
2019-01-15T11:02:21.506Z,101288.50
2019-01-15T11:04:51.329Z,101290.78
2019-01-15T11:07:21.507Z,101289.02
2019-01-15T11:09:52.123Z,101293.88
2019-01-15T11:12:22.068Z,101300.33
2019-01-15T11:14:55.985Z,101299.91
2019-01-15T11:17:22.977Z,101299.22
2019-01-15T11:19:52.936Z,101292.69
2019-01-15T11:22:23.121Z,101292.44
2019-01-15T11:24:53.037Z,101291.30
2019-01-15T11:27:23.059Z,101297.97
2019-01-15T11:29:53.820Z,101306.66
2019-01-15T11:32:23.816Z,101303.67
2019-01-15T11:34:53.616Z,101303.30
2019-01-15T11:37:23.799Z,101313.50
2019-01-15T11:39:53.761Z,101322.29
2019-01-15T11:42:23.787Z,101325.31
2019-01-15T11:44:53.901Z,101326.43
2019-01-15T11:47:23.587Z,101321.94
2019-01-15T11:49:53.439Z,101327.43
2019-01-15T11:52:23.139Z,101320.55
2019-01-15T11:54:53.066Z,101328.18
2019-01-15T11:57:23.054Z,101324.92
2019-01-15T11:59:53.138Z,101334.95
2019-01-15T12:02:23.411Z,101337.53
2019-01-15T12:04:53.203Z,101342.14
2019-01-15T12:07:23.228Z,101343.69
2019-01-15T12:09:52.728Z,101348.97
2019-01-15T12:12:22.956Z,101338.22
2019-01-15T12:14:52.969Z,101349.03
2019-01-15T12:17:22.982Z,101352.02
2019-01-15T12:19:52.800Z,101356.19
2019-01-15T12:22:22.811Z,101350.80
2019-01-15T12:24:52.989Z,101354.63
2019-01-15T12:27:22.952Z,101357.74
2019-01-15T12:29:53.231Z,101357.95
2019-01-15T12:32:23.736Z,101361.18
2019-01-15T12:34:53.809Z,101366.08
2019-01-15T12:37:23.325Z,101365.45
2019-01-15T12:39:53.648Z,101365.68
2019-01-15T12:42:23.372Z,101367.58
2019-01-15T12:44:53.527Z,101369.37
2019-01-15T12:47:23.283Z,101371.63
2019-01-15T12:49:53.438Z,101376.14
2019-01-15T12:52:23.309Z,101388.64
2019-01-15T12:54:53.263Z,101388.70
2019-01-15T12:57:23.045Z,101392.34
2019-01-15T12:59:53.382Z,101388.09
2019-01-15T13:02:23.357Z,101385.70
2019-01-15T13:04:53.305Z,101379.24
2019-01-15T13:07:23.922Z,101383.46
2019-01-15T13:09:54.059Z,101387.00
2019-01-15T13:12:24.071Z,101386.32
2019-01-15T13:14:54.188Z,101399.96
2019-01-15T13:17:24.166Z,101391.70
2019-01-15T13:19:54.348Z,101399.83
2019-01-15T13:22:24.450Z,101399.53
2019-01-15T13:24:54.252Z,101402.27
2019-01-15T13:27:24.282Z,101410.56
2019-01-15T13:29:54.095Z,101410.37
2019-01-15T13:32:23.776Z,101417.07
2019-01-15T13:34:53.299Z,101418.45
2019-01-15T13:37:23.306Z,101424.17
2019-01-15T13:39:53.354Z,101430.32
2019-01-15T13:42:23.410Z,101432.51
2019-01-15T13:44:53.568Z,101441.13
2019-01-15T13:47:23.379Z,101440.80
2019-01-15T13:49:53.327Z,101441.02
2019-01-15T13:52:23.424Z,101450.13
2019-01-15T13:54:53.530Z,101459.87
2019-01-15T13:57:23.650Z,101461.66
2019-01-15T13:59:53.686Z,101467.84
2019-01-15T14:02:23.487Z,101471.67
2019-01-15T14:04:53.446Z,101467.73
2019-01-15T14:07:23.367Z,101472.33
2019-01-15T14:09:53.336Z,101472.73
2019-01-15T14:12:23.135Z,101476.35
2019-01-15T14:14:52.963Z,101477.95
2019-01-15T14:17:23.293Z,101479.91
2019-01-15T14:19:53.436Z,101491.59
2019-01-15T14:22:22.868Z,101485.62
2019-01-15T14:24:58.424Z,101493.85
2019-01-15T14:27:22.931Z,101488.81
2019-01-15T14:29:52.949Z,101491.25
2019-01-15T14:32:23.102Z,101499.80
2019-01-15T14:34:53.293Z,101499.02
2019-01-15T14:37:23.248Z,101502.95
2019-01-15T14:39:53.324Z,101504.81
2019-01-15T14:42:23.133Z,101507.74
2019-01-15T14:44:53.265Z,101507.77
2019-01-15T14:47:23.687Z,101509.45
2019-01-15T14:49:53.616Z,101514.23
2019-01-15T14:52:24.121Z,101516.10
2019-01-15T14:54:53.643Z,101515.00
2019-01-15T14:57:23.585Z,101519.36
2019-01-15T14:59:53.493Z,101520.93
2019-01-15T15:02:23.411Z,101521.23
2019-01-15T15:04:53.594Z,101524.50
2019-01-15T15:07:23.627Z,101528.26
2019-01-15T15:09:53.968Z,101529.83
2019-01-15T15:12:23.951Z,101524.39
2019-01-15T15:14:53.964Z,101525.43
2019-01-15T15:17:23.976Z,101521.14
2019-01-15T15:19:53.689Z,101522.08
2019-01-15T15:22:24.059Z,101528.61
2019-01-15T15:24:54.257Z,101534.36
2019-01-15T15:27:24.215Z,101537.34
2019-01-15T15:29:54.368Z,101541.89
2019-01-15T15:32:24.415Z,101547.31
2019-01-15T15:34:54.470Z,101539.56
2019-01-15T15:37:24.502Z,101531.87
2019-01-15T15:39:54.052Z,101527.20
2019-01-15T15:42:24.070Z,101531.49
2019-01-15T15:44:54.412Z,101526.73
2019-01-15T15:47:23.974Z,101524.43
2019-01-15T15:49:53.811Z,101526.36
2019-01-15T15:52:24.052Z,101519.57
2019-01-15T15:54:53.902Z,101521.13
2019-01-15T15:57:24.542Z,101515.39
2019-01-15T15:59:53.851Z,101514.71
2019-01-15T16:02:22.868Z,101516.30
2019-01-15T16:04:52.056Z,101511.13
2019-01-15T16:07:21.664Z,101502.22
2019-01-15T16:09:51.142Z,101509.02
2019-01-15T16:12:20.415Z,101507.64
2019-01-15T16:14:49.655Z,101511.81
2019-01-15T16:17:18.774Z,101514.28
2019-01-15T16:19:48.125Z,101509.70
2019-01-15T16:22:17.273Z,101510.54
2019-01-15T16:24:46.432Z,101507.42
2019-01-15T16:27:15.507Z,101497.23
2019-01-15T16:29:44.585Z,101498.42
2019-01-15T16:32:13.585Z,101500.50
2019-01-15T16:34:42.783Z,101497.33
2019-01-15T16:37:11.961Z,101498.33
2019-01-15T16:39:41.141Z,101486.19
2019-01-15T16:42:10.024Z,101478.47
2019-01-15T16:44:39.811Z,101481.42
2019-01-15T16:47:08.984Z,101481.60
2019-01-15T16:49:38.091Z,101480.55
2019-01-15T16:52:07.339Z,101478.59
2019-01-15T16:54:36.506Z,101469.97
2019-01-15T16:57:05.464Z,101470.77
2019-01-15T16:59:34.470Z,101472.55
2019-01-15T17:02:03.826Z,101464.27
2019-01-15T17:04:32.834Z,101457.80
2019-01-15T17:07:01.934Z,101467.09
2019-01-15T17:09:30.967Z,101457.16
2019-01-15T17:12:00.098Z,101453.61
2019-01-15T17:14:29.170Z,101448.48
2019-01-15T17:16:58.520Z,101444.97
2019-01-15T17:19:27.691Z,101439.22
2019-01-15T17:21:56.951Z,101435.20
2019-01-15T17:24:26.101Z,101437.47
2019-01-15T17:26:55.330Z,101445.78
2019-01-15T17:29:24.558Z,101441.05
2019-01-15T17:31:53.783Z,101443.57
2019-01-15T17:34:23.014Z,101432.65
2019-01-15T17:36:52.084Z,101436.79
2019-01-15T17:39:21.198Z,101430.46
2019-01-15T17:41:50.246Z,101435.22
2019-01-15T17:44:19.230Z,101432.39
2019-01-15T17:46:48.764Z,101434.77
2019-01-15T17:49:26.348Z,101430.34
2019-01-15T17:51:56.598Z,101433.47
2019-01-15T17:54:25.782Z,101429.70
2019-01-15T17:56:58.886Z,101421.73
2019-01-15T17:59:28.480Z,101428.48
2019-01-15T18:01:57.921Z,101433.11
2019-01-15T18:04:27.558Z,101422.12
2019-01-15T18:06:56.678Z,101420.36
2019-01-15T18:09:26.247Z,101420.93
2019-01-15T18:11:55.882Z,101417.79
2019-01-15T18:14:27.174Z,101419.94
2019-01-15T18:16:55.288Z,101411.80
2019-01-15T18:19:24.747Z,101415.41
2019-01-15T18:21:54.260Z,101402.67
2019-01-15T18:24:24.388Z,101408.87
2019-01-15T18:26:53.679Z,101415.53
2019-01-15T18:29:22.991Z,101419.33
2019-01-15T18:31:52.820Z,101417.73
2019-01-15T18:34:22.253Z,101418.98
2019-01-15T18:36:51.657Z,101423.10
2019-01-15T18:39:21.223Z,101418.99
2019-01-15T18:41:50.432Z,101418.95
2019-01-15T18:44:19.519Z,101419.92
2019-01-15T18:46:55.652Z,101422.77
2019-01-15T18:49:19.742Z,101424.68
2019-01-15T18:54:55.211Z,101422.48
2019-01-15T18:57:24.368Z,101414.42
2019-01-15T18:59:53.564Z,101404.67
2019-01-15T19:02:23.017Z,101403.23
2019-01-15T19:04:52.122Z,101408.50
2019-01-15T19:07:21.615Z,101408.56
2019-01-15T19:09:52.028Z,101409.39
2019-01-15T19:12:22.320Z,101409.97
2019-01-15T19:14:52.428Z,101417.48
2019-01-15T19:17:22.399Z,101415.23
2019-01-15T19:19:52.310Z,101411.22
2019-01-15T19:22:22.148Z,101403.95
2019-01-15T19:24:52.149Z,101406.95
2019-01-15T19:27:22.771Z,101405.50
2019-01-15T19:29:52.253Z,101408.14
2019-01-15T19:32:21.987Z,101407.23
2019-01-15T19:34:51.586Z,101404.60
2019-01-15T19:37:20.683Z,101408.36
2019-01-15T19:39:50.007Z,101412.52
2019-01-15T19:42:19.795Z,101406.22
2019-01-15T19:44:49.911Z,101405.47
2019-01-15T19:47:19.978Z,101405.22
2019-01-15T19:49:49.107Z,101407.98
2019-01-15T19:52:18.221Z,101405.75
2019-01-15T19:54:48.053Z,101408.60
2019-01-15T19:57:18.073Z,101411.74
2019-01-15T19:59:47.777Z,101407.20
2019-01-15T20:02:17.080Z,101409.98
2019-01-15T20:04:47.020Z,101408.91
2019-01-15T20:07:16.918Z,101408.23
2019-01-15T20:09:47.231Z,101407.69
2019-01-15T20:12:17.359Z,101401.46
2019-01-15T20:14:47.058Z,101402.63
2019-01-15T20:17:18.493Z,101401.99
2019-01-15T20:19:46.987Z,101393.88
2019-01-15T20:22:17.323Z,101386.80
2019-01-15T20:24:47.122Z,101388.64
2019-01-15T20:27:17.455Z,101397.39
2019-01-15T20:29:46.986Z,101386.98
2019-01-15T20:32:17.255Z,101382.89
2019-01-15T20:34:47.659Z,101375.53
2019-01-15T20:37:17.229Z,101379.55
2019-01-15T20:39:47.539Z,101380.92
2019-01-15T20:42:17.903Z,101376.01
2019-01-15T20:44:47.970Z,101380.73
2019-01-15T20:47:17.416Z,101385.95
2019-01-15T20:49:48.200Z,101380.38
2019-01-15T20:52:17.678Z,101391.81
2019-01-15T20:54:46.981Z,101379.78
2019-01-15T20:57:17.157Z,101388.19
2019-01-15T20:59:47.258Z,101380.45
2019-01-15T21:02:17.369Z,101393.33
2019-01-15T21:04:47.608Z,101397.80
2019-01-15T21:07:17.517Z,101404.31
2019-01-15T21:09:47.228Z,101410.13
2019-01-15T21:12:17.822Z,101405.38
2019-01-15T21:14:47.763Z,101409.91
2019-01-15T21:17:17.464Z,101404.78
2019-01-15T21:19:46.566Z,101401.92
2019-01-15T21:22:15.820Z,101401.45
2019-01-15T21:24:44.892Z,101394.09
2019-01-15T21:27:13.982Z,101383.84
2019-01-15T21:29:43.367Z,101375.31
2019-01-15T21:32:12.463Z,101379.48
2019-01-15T21:34:41.746Z,101382.84
2019-01-15T21:37:11.678Z,101392.80
2019-01-15T21:39:41.387Z,101395.23
2019-01-15T21:42:10.485Z,101398.59
2019-01-15T21:44:39.669Z,101405.77
2019-01-15T21:47:08.710Z,101404.16
2019-01-15T21:49:38.183Z,101408.16
2019-01-15T21:52:07.576Z,101407.92
2019-01-15T21:54:36.772Z,101402.41
2019-01-15T21:57:05.840Z,101404.84
2019-01-15T21:59:35.350Z,101407.45
2019-01-15T22:02:05.053Z,101404.72
2019-01-15T22:04:34.385Z,101406.86
2019-01-15T22:07:04.557Z,101411.61
2019-01-15T22:09:33.284Z,101417.41
2019-01-15T22:12:02.885Z,101418.75
2019-01-15T22:14:32.067Z,101411.16
2019-01-15T22:17:01.613Z,101409.48
2019-01-15T22:19:30.944Z,101415.27
2019-01-15T22:22:00.033Z,101413.55
2019-01-15T22:24:29.319Z,101419.89
2019-01-15T22:26:58.791Z,101417.36
2019-01-15T22:29:28.202Z,101421.85
2019-01-15T22:31:57.288Z,101417.00
2019-01-15T22:34:26.593Z,101422.12
2019-01-15T22:36:55.756Z,101425.65
2019-01-15T22:39:25.154Z,101420.83
2019-01-15T22:41:54.581Z,101418.76
2019-01-15T22:44:23.744Z,101422.33
2019-01-15T22:46:53.465Z,101426.13
2019-01-15T22:49:23.669Z,101424.78
2019-01-15T22:51:53.333Z,101432.78
2019-01-15T22:54:22.837Z,101431.91
2019-01-15T22:56:52.469Z,101432.94
2019-01-15T22:59:21.666Z,101435.84
2019-01-15T23:01:51.151Z,101441.47
2019-01-15T23:04:20.429Z,101439.89
2019-01-15T23:06:49.625Z,101439.25
2019-01-15T23:09:19.120Z,101443.66
2019-01-15T23:11:48.416Z,101444.95
2019-01-15T23:14:18.273Z,101447.95
2019-01-15T23:16:47.829Z,101458.13
2019-01-15T23:19:17.522Z,101452.12
2019-01-15T23:21:46.815Z,101457.40
2019-01-15T23:24:16.464Z,101462.14
2019-01-15T23:26:46.082Z,101457.55
2019-01-15T23:29:15.818Z,101463.59
2019-01-15T23:31:46.003Z,101465.27
2019-01-15T23:34:15.080Z,101471.32
2019-01-15T23:36:44.391Z,101477.45
2019-01-15T23:39:14.200Z,101479.52
2019-01-15T23:41:43.848Z,101482.84
2019-01-15T23:44:13.369Z,101482.27
2019-01-15T23:46:42.637Z,101483.49
2019-01-15T23:49:11.945Z,101488.89
2019-01-15T23:51:41.852Z,101480.44
2019-01-15T23:54:11.991Z,101488.44
2019-01-15T23:56:41.779Z,101492.67
2019-01-15T23:59:11.193Z,101495.08
